VOML/IXE METAR and TAF weather

Enter ICAO airport designator
Station Type Date Time Source
VOML METAR 2022/08/13 13:00 UTC NOAA

VOML 131300Z 23004KT 6000 FEW012 BKN080 27/23 Q1008 NOSIG


Station Type Date Time Source
VOML Decoded METAR 2022/08/13 13:00 UTC NOAA

Mangalore / Bajpe, India (VOML) 12-55N 074-53E 102M
Aug 13, 2022 - 09:00 AM EDT / 2022.08.13 1300 UTC
Wind: from the SW (230 degrees) at 5 MPH (4 KT):0
Visibility: 3 mile(s):0
Sky conditions: mostly cloudy
Temperature: 80 F (27 C)
Dew Point: 73 F (23 C)
Relative Humidity: 78%
Pressure (altimeter): 29.77 in. Hg (1008 hPa)
ob: VOML 131300Z 23004KT 6000 FEW012 BKN080 27/23 Q1008 NOSIG
cycle: 13

Station Type Date Time Source
VOML TAF 2022/08/13 12:00 UTC NOAA

TAF VOML 131100Z 1312/1418 27010KT 6000 FEW005 SCT012 BKN080
TEMPO 1312/1318 3000 TSRA RA SCT005 SCT012 FEW025CB BKN080
BECMG 1317/1318 VRB02KT
TEMPO 1321/1403 3000 RA BR
BECMG 1404/1405 27010KT
TEMPO 1409/1415 3000 TSRA RA SCT005 SCT012 FEW025CB BKN080

Example: see airport list